Hlavní strana
METAR-TAF:

METAR-TAF

Letiště :

Savonlinna, Finsko

zeměpisná šířka: 61-57N, zeměpisná délka: 028-57E, výška: 95 m

Aktuální stav počasí

Zpráva byla vytvořena před 32 minutami, v 23:50 UTC
Jihovýchodní vítr 8 kt
Teplota 8°C
Vlhkost vzduchu 100%
Tlak 967 hPa
Viditelnost: 6000 m
Zataženo ve výšce 400 ft
slabý déšť

METAR: EFSA 212350Z AUTO 14008KT 6000 -RA OVC004 08/08 Q0967

Čas: 03:22 (00:22 UTC)

Předpověď počasí

Zpráva byla vytvořena před 9 hodinami a 45 minutami, v 14:37 UTC
Předpověď platná od 21 v 15 UTC do 21 v 18 UTC
Jihojihozápadní vítr 7 kt
Viditelnost 10 km a více
Oblačno až skoro zataženo ve výšce 3500 ft

TAF: EFSA 211437Z 2115/2118 20007KT 9999 BKN035

Stav a předpovědi počasí z více než 4 000 letišť (zprávy METAR a TAF).

Červené a žluté tečky na mapě představují dostupné meteorologické stanice.

Když kurzor umístíte na tečku, zobrazí se název stanice.

Pak kliknutím zobrazíte stav a předpověď počasí.

Chcete-li změnit mapu, kliknutím na zelené tlačítko se znaménkem +mapu přiblížíte, kliknutím na zelené tlačítko se znaménkem – mapu oddálíte a kliknutím na zelené šipky přejdete na sousední mapy.


METAR-TAF: